sensor_id;sensor_type;location;lat;lon;timestamp;P1;durP1;ratioP1;P2;durP2;ratioP2
55372;SDS011;41249;47.838;16.490;2022-12-29T00:01:33;6.95;;;4.63;;
55372;SDS011;41249;47.838;16.490;2022-12-29T00:04:00;7.28;;;4.15;;
55372;SDS011;41249;47.838;16.490;2022-12-29T00:06:27;7.03;;;4.28;;
55372;SDS011;41249;47.838;16.490;2022-12-29T00:08:54;10.70;;;4.75;;
55372;SDS011;41249;47.838;16.490;2022-12-29T00:11:21;6.53;;;4.15;;
55372;SDS011;41249;47.838;16.490;2022-12-29T00:13:52;11.77;;;5.20;;
55372;SDS011;41249;47.838;16.490;2022-12-29T00:16:40;7.05;;;4.22;;
55372;SDS011;41249;47.838;16.490;2022-12-29T00:19:09;11.38;;;4.60;;
55372;SDS011;41249;47.838;16.490;2022-12-29T00:21:57;8.77;;;4.20;;
55372;SDS011;41249;47.838;16.490;2022-12-29T00:24:43;7.88;;;3.80;;
55372;SDS011;41249;47.838;16.490;2022-12-29T00:27:19;7.95;;;3.92;;
55372;SDS011;41249;47.838;16.490;2022-12-29T00:30:08;8.30;;;4.43;;
55372;SDS011;41249;47.838;16.490;2022-12-29T00:32:55;9.40;;;4.60;;
55372;SDS011;41249;47.838;16.490;2022-12-29T00:35:43;7.03;;;4.43;;
55372;SDS011;41249;47.838;16.490;2022-12-29T00:38:12;7.28;;;4.40;;
55372;SDS011;41249;47.838;16.490;2022-12-29T00:40:58;8.27;;;4.53;;
55372;SDS011;41249;47.838;16.490;2022-12-29T00:43:43;8.20;;;3.67;;
55372;SDS011;41249;47.838;16.490;2022-12-29T00:46:28;4.60;;;3.17;;
55372;SDS011;41249;47.838;16.490;2022-12-29T00:48:55;7.35;;;4.47;;
55372;SDS011;41249;47.838;16.490;2022-12-29T00:51:40;6.95;;;3.15;;
55372;SDS011;41249;47.838;16.490;2022-12-29T00:54:06;5.63;;;3.25;;
55372;SDS011;41249;47.838;16.490;2022-12-29T00:56:33;3.95;;;2.63;;
55372;SDS011;41249;47.838;16.490;2022-12-29T00:59:01;6.32;;;3.55;;
55372;SDS011;41249;47.838;16.490;2022-12-29T01:01:28;7.00;;;3.38;;
55372;SDS011;41249;47.838;16.490;2022-12-29T01:03:55;2.88;;;2.00;;
55372;SDS011;41249;47.838;16.490;2022-12-29T01:06:29;5.47;;;3.70;;
55372;SDS011;41249;47.838;16.490;2022-12-29T01:08:55;10.75;;;4.07;;
55372;SDS011;41249;47.838;16.490;2022-12-29T01:11:41;4.95;;;2.95;;
55372;SDS011;41249;47.838;16.490;2022-12-29T01:14:08;6.03;;;3.70;;
55372;SDS011;41249;47.838;16.490;2022-12-29T01:16:34;6.40;;;4.07;;
55372;SDS011;41249;47.838;16.490;2022-12-29T01:19:03;10.32;;;4.53;;
55372;SDS011;41249;47.838;16.490;2022-12-29T01:21:29;6.75;;;3.67;;
55372;SDS011;41249;47.838;16.490;2022-12-29T01:23:56;7.53;;;3.28;;
55372;SDS011;41249;47.838;16.490;2022-12-29T01:26:23;6.57;;;3.80;;
55372;SDS011;41249;47.838;16.490;2022-12-29T01:28:49;8.40;;;5.13;;
55372;SDS011;41249;47.838;16.490;2022-12-29T01:31:16;6.63;;;3.15;;
55372;SDS011;41249;47.838;16.490;2022-12-29T01:33:43;4.53;;;2.70;;
55372;SDS011;41249;47.838;16.490;2022-12-29T01:36:14;6.35;;;3.17;;
55372;SDS011;41249;47.838;16.490;2022-12-29T01:38:42;3.70;;;2.22;;
55372;SDS011;41249;47.838;16.490;2022-12-29T01:41:10;4.90;;;3.10;;
55372;SDS011;41249;47.838;16.490;2022-12-29T01:43:43;8.38;;;3.70;;
55372;SDS011;41249;47.838;16.490;2022-12-29T01:48:59;7.72;;;3.60;;
55372;SDS011;41249;47.838;16.490;2022-12-29T01:51:44;5.80;;;3.55;;
55372;SDS011;41249;47.838;16.490;2022-12-29T01:54:19;5.40;;;3.00;;
55372;SDS011;41249;47.838;16.490;2022-12-29T01:56:51;4.45;;;2.65;;
55372;SDS011;41249;47.838;16.490;2022-12-29T01:59:20;3.78;;;2.20;;
55372;SDS011;41249;47.838;16.490;2022-12-29T02:01:50;7.07;;;3.78;;
55372;SDS011;41249;47.838;16.490;2022-12-29T02:04:17;8.57;;;4.40;;
55372;SDS011;41249;47.838;16.490;2022-12-29T02:06:54;9.45;;;4.60;;
55372;SDS011;41249;47.838;16.490;2022-12-29T02:09:26;6.88;;;3.38;;
55372;SDS011;41249;47.838;16.490;2022-12-29T02:11:52;7.90;;;3.10;;
55372;SDS011;41249;47.838;16.490;2022-12-29T02:14:19;8.35;;;3.67;;
55372;SDS011;41249;47.838;16.490;2022-12-29T02:20:00;8.02;;;4.05;;
55372;SDS011;41249;47.838;16.490;2022-12-29T02:31:42;10.02;;;4.72;;
55372;SDS011;41249;47.838;16.490;2022-12-29T02:37:11;9.50;;;4.68;;
55372;SDS011;41249;47.838;16.490;2022-12-29T02:39:53;10.73;;;4.68;;
55372;SDS011;41249;47.838;16.490;2022-12-29T02:45:16;6.90;;;4.40;;
55372;SDS011;41249;47.838;16.490;2022-12-29T02:47:49;7.38;;;3.70;;
55372;SDS011;41249;47.838;16.490;2022-12-29T02:50:24;8.70;;;4.90;;
55372;SDS011;41249;47.838;16.490;2022-12-29T02:53:06;6.28;;;3.22;;
55372;SDS011;41249;47.838;16.490;2022-12-29T02:55:36;8.25;;;4.32;;
55372;SDS011;41249;47.838;16.490;2022-12-29T03:00:36;10.60;;;4.32;;
55372;SDS011;41249;47.838;16.490;2022-12-29T03:06:09;7.03;;;4.03;;
55372;SDS011;41249;47.838;16.490;2022-12-29T03:08:49;8.52;;;4.05;;
55372;SDS011;41249;47.838;16.490;2022-12-29T03:11:19;7.72;;;4.72;;
55372;SDS011;41249;47.838;16.490;2022-12-29T03:17:03;8.93;;;5.25;;
55372;SDS011;41249;47.838;16.490;2022-12-29T03:19:38;9.15;;;5.43;;
55372;SDS011;41249;47.838;16.490;2022-12-29T03:22:12;9.50;;;5.45;;
55372;SDS011;41249;47.838;16.490;2022-12-29T03:25:01;4.60;;;3.00;;
55372;SDS011;41249;47.838;16.490;2022-12-29T03:27:34;7.57;;;5.38;;
55372;SDS011;41249;47.838;16.490;2022-12-29T03:30:06;10.80;;;5.80;;
55372;SDS011;41249;47.838;16.490;2022-12-29T03:32:36;9.90;;;5.53;;
55372;SDS011;41249;47.838;16.490;2022-12-29T03:35:09;8.32;;;4.65;;
55372;SDS011;41249;47.838;16.490;2022-12-29T03:37:40;7.40;;;4.10;;
55372;SDS011;41249;47.838;16.490;2022-12-29T03:40:12;7.90;;;4.93;;
55372;SDS011;41249;47.838;16.490;2022-12-29T03:42:39;11.10;;;5.43;;
55372;SDS011;41249;47.838;16.490;2022-12-29T03:45:07;11.48;;;6.10;;
55372;SDS011;41249;47.838;16.490;2022-12-29T03:47:35;10.40;;;6.10;;
55372;SDS011;41249;47.838;16.490;2022-12-29T03:50:02;11.75;;;5.05;;
55372;SDS011;41249;47.838;16.490;2022-12-29T03:52:28;7.30;;;3.58;;
55372;SDS011;41249;47.838;16.490;2022-12-29T03:54:55;7.25;;;3.90;;
55372;SDS011;41249;47.838;16.490;2022-12-29T03:57:21;6.13;;;3.20;;
55372;SDS011;41249;47.838;16.490;2022-12-29T03:59:48;6.90;;;3.25;;
55372;SDS011;41249;47.838;16.490;2022-12-29T04:02:15;4.82;;;3.40;;
55372;SDS011;41249;47.838;16.490;2022-12-29T04:04:43;9.95;;;5.00;;
55372;SDS011;41249;47.838;16.490;2022-12-29T04:07:10;7.60;;;4.93;;
55372;SDS011;41249;47.838;16.490;2022-12-29T04:09:36;10.38;;;6.07;;
55372;SDS011;41249;47.838;16.490;2022-12-29T04:12:03;8.48;;;5.38;;
55372;SDS011;41249;47.838;16.490;2022-12-29T04:14:30;10.07;;;6.15;;
55372;SDS011;41249;47.838;16.490;2022-12-29T04:16:56;10.65;;;6.35;;
55372;SDS011;41249;47.838;16.490;2022-12-29T04:19:23;10.30;;;6.35;;
55372;SDS011;41249;47.838;16.490;2022-12-29T04:21:49;9.23;;;5.35;;
55372;SDS011;41249;47.838;16.490;2022-12-29T04:24:16;8.63;;;5.38;;
55372;SDS011;41249;47.838;16.490;2022-12-29T04:26:44;7.47;;;4.50;;
55372;SDS011;41249;47.838;16.490;2022-12-29T04:29:10;11.40;;;6.15;;
55372;SDS011;41249;47.838;16.490;2022-12-29T04:31:37;15.27;;;6.70;;
55372;SDS011;41249;47.838;16.490;2022-12-29T04:34:03;13.27;;;7.05;;
55372;SDS011;41249;47.838;16.490;2022-12-29T04:36:30;9.32;;;6.63;;
55372;SDS011;41249;47.838;16.490;2022-12-29T04:38:57;13.32;;;6.78;;
55372;SDS011;41249;47.838;16.490;2022-12-29T04:41:23;11.15;;;5.65;;
55372;SDS011;41249;47.838;16.490;2022-12-29T04:43:50;10.15;;;5.13;;
55372;SDS011;41249;47.838;16.490;2022-12-29T04:46:17;8.98;;;6.03;;
55372;SDS011;41249;47.838;16.490;2022-12-29T04:48:43;8.48;;;5.38;;
55372;SDS011;41249;47.838;16.490;2022-12-29T04:51:10;6.07;;;3.75;;
55372;SDS011;41249;47.838;16.490;2022-12-29T04:53:37;10.55;;;6.35;;
55372;SDS011;41249;47.838;16.490;2022-12-29T04:56:03;12.30;;;7.05;;
55372;SDS011;41249;47.838;16.490;2022-12-29T04:58:30;15.70;;;8.00;;
55372;SDS011;41249;47.838;16.490;2022-12-29T05:00:57;7.80;;;4.95;;
55372;SDS011;41249;47.838;16.490;2022-12-29T05:03:23;9.32;;;5.78;;
55372;SDS011;41249;47.838;16.490;2022-12-29T05:05:52;8.07;;;5.68;;
55372;SDS011;41249;47.838;16.490;2022-12-29T05:08:20;13.00;;;7.78;;
55372;SDS011;41249;47.838;16.490;2022-12-29T05:10:53;12.75;;;6.18;;
55372;SDS011;41249;47.838;16.490;2022-12-29T05:13:19;7.47;;;4.57;;
55372;SDS011;41249;47.838;16.490;2022-12-29T05:15:52;7.45;;;5.05;;
55372;SDS011;41249;47.838;16.490;2022-12-29T05:20:46;6.97;;;3.88;;
55372;SDS011;41249;47.838;16.490;2022-12-29T05:23:13;5.78;;;3.00;;
55372;SDS011;41249;47.838;16.490;2022-12-29T05:25:40;7.63;;;4.25;;
55372;SDS011;41249;47.838;16.490;2022-12-29T05:28:07;9.85;;;6.80;;
55372;SDS011;41249;47.838;16.490;2022-12-29T05:30:33;5.80;;;3.75;;
55372;SDS011;41249;47.838;16.490;2022-12-29T05:33:00;12.48;;;6.22;;
55372;SDS011;41249;47.838;16.490;2022-12-29T05:35:27;12.52;;;7.93;;
55372;SDS011;41249;47.838;16.490;2022-12-29T05:37:53;13.15;;;8.02;;
55372;SDS011;41249;47.838;16.490;2022-12-29T05:40:20;12.75;;;7.35;;
55372;SDS011;41249;47.838;16.490;2022-12-29T05:42:46;10.50;;;6.60;;
55372;SDS011;41249;47.838;16.490;2022-12-29T05:45:13;13.63;;;7.53;;
55372;SDS011;41249;47.838;16.490;2022-12-29T05:47:39;9.88;;;5.82;;
55372;SDS011;41249;47.838;16.490;2022-12-29T05:50:06;8.68;;;5.05;;
55372;SDS011;41249;47.838;16.490;2022-12-29T05:52:33;9.88;;;5.25;;
55372;SDS011;41249;47.838;16.490;2022-12-29T05:54:59;10.70;;;6.57;;
55372;SDS011;41249;47.838;16.490;2022-12-29T05:57:26;11.73;;;5.95;;
55372;SDS011;41249;47.838;16.490;2022-12-29T05:59:53;11.75;;;7.15;;
55372;SDS011;41249;47.838;16.490;2022-12-29T06:02:19;8.63;;;4.65;;
55372;SDS011;41249;47.838;16.490;2022-12-29T06:04:46;11.73;;;7.28;;
55372;SDS011;41249;47.838;16.490;2022-12-29T06:07:13;7.85;;;4.07;;
55372;SDS011;41249;47.838;16.490;2022-12-29T06:09:39;8.35;;;4.60;;
55372;SDS011;41249;47.838;16.490;2022-12-29T06:12:06;13.52;;;7.00;;
55372;SDS011;41249;47.838;16.490;2022-12-29T06:14:32;10.68;;;6.15;;
55372;SDS011;41249;47.838;16.490;2022-12-29T06:16:59;11.32;;;5.53;;
55372;SDS011;41249;47.838;16.490;2022-12-29T06:19:26;11.30;;;6.50;;
55372;SDS011;41249;47.838;16.490;2022-12-29T06:21:52;9.57;;;6.10;;
55372;SDS011;41249;47.838;16.490;2022-12-29T06:24:19;13.93;;;7.18;;
55372;SDS011;41249;47.838;16.490;2022-12-29T06:26:46;8.10;;;5.40;;
55372;SDS011;41249;47.838;16.490;2022-12-29T06:29:13;13.13;;;6.45;;
55372;SDS011;41249;47.838;16.490;2022-12-29T06:31:43;9.80;;;5.68;;
55372;SDS011;41249;47.838;16.490;2022-12-29T06:34:12;8.20;;;4.32;;
55372;SDS011;41249;47.838;16.490;2022-12-29T06:36:39;9.27;;;6.03;;
55372;SDS011;41249;47.838;16.490;2022-12-29T06:39:05;7.18;;;4.28;;
55372;SDS011;41249;47.838;16.490;2022-12-29T06:41:32;8.82;;;5.65;;
55372;SDS011;41249;47.838;16.490;2022-12-29T06:43:59;9.55;;;5.57;;
55372;SDS011;41249;47.838;16.490;2022-12-29T06:46:25;8.48;;;5.65;;
55372;SDS011;41249;47.838;16.490;2022-12-29T06:48:52;8.40;;;5.60;;
55372;SDS011;41249;47.838;16.490;2022-12-29T06:51:18;12.85;;;6.82;;
55372;SDS011;41249;47.838;16.490;2022-12-29T06:53:45;7.53;;;4.35;;
55372;SDS011;41249;47.838;16.490;2022-12-29T06:56:11;9.13;;;5.13;;
55372;SDS011;41249;47.838;16.490;2022-12-29T06:58:38;13.45;;;8.00;;
55372;SDS011;41249;47.838;16.490;2022-12-29T07:01:04;9.55;;;5.15;;
55372;SDS011;41249;47.838;16.490;2022-12-29T07:03:31;8.40;;;4.22;;
55372;SDS011;41249;47.838;16.490;2022-12-29T07:05:58;10.65;;;6.03;;
55372;SDS011;41249;47.838;16.490;2022-12-29T07:08:24;8.23;;;5.07;;
55372;SDS011;41249;47.838;16.490;2022-12-29T07:10:51;6.45;;;4.50;;
55372;SDS011;41249;47.838;16.490;2022-12-29T07:13:18;9.65;;;6.28;;
55372;SDS011;41249;47.838;16.490;2022-12-29T07:15:44;9.90;;;5.57;;
55372;SDS011;41249;47.838;16.490;2022-12-29T07:18:11;8.50;;;4.57;;
55372;SDS011;41249;47.838;16.490;2022-12-29T07:20:37;13.02;;;7.47;;
55372;SDS011;41249;47.838;16.490;2022-12-29T07:23:04;8.80;;;5.35;;
55372;SDS011;41249;47.838;16.490;2022-12-29T07:25:30;10.70;;;6.95;;
55372;SDS011;41249;47.838;16.490;2022-12-29T07:27:57;9.32;;;5.32;;
55372;SDS011;41249;47.838;16.490;2022-12-29T07:30:24;13.80;;;6.70;;
55372;SDS011;41249;47.838;16.490;2022-12-29T07:32:50;7.05;;;4.45;;
55372;SDS011;41249;47.838;16.490;2022-12-29T07:35:17;9.30;;;5.55;;
55372;SDS011;41249;47.838;16.490;2022-12-29T07:37:43;10.07;;;4.90;;
55372;SDS011;41249;47.838;16.490;2022-12-29T07:40:10;8.50;;;5.82;;
55372;SDS011;41249;47.838;16.490;2022-12-29T07:42:37;13.85;;;7.63;;
55372;SDS011;41249;47.838;16.490;2022-12-29T07:45:04;8.88;;;5.43;;
55372;SDS011;41249;47.838;16.490;2022-12-29T07:47:31;9.70;;;5.35;;
55372;SDS011;41249;47.838;16.490;2022-12-29T07:49:58;8.75;;;5.65;;
55372;SDS011;41249;47.838;16.490;2022-12-29T07:52:24;12.50;;;7.95;;
55372;SDS011;41249;47.838;16.490;2022-12-29T07:54:51;8.48;;;5.38;;
55372;SDS011;41249;47.838;16.490;2022-12-29T07:57:17;13.05;;;6.47;;
55372;SDS011;41249;47.838;16.490;2022-12-29T07:59:44;10.90;;;6.28;;
55372;SDS011;41249;47.838;16.490;2022-12-29T08:02:11;13.45;;;7.45;;
55372;SDS011;41249;47.838;16.490;2022-12-29T08:04:38;10.85;;;6.78;;
55372;SDS011;41249;47.838;16.490;2022-12-29T08:07:04;11.75;;;6.72;;
55372;SDS011;41249;47.838;16.490;2022-12-29T08:09:31;9.20;;;5.80;;
55372;SDS011;41249;47.838;16.490;2022-12-29T08:11:58;9.40;;;5.85;;
55372;SDS011;41249;47.838;16.490;2022-12-29T08:14:24;8.23;;;4.50;;
55372;SDS011;41249;47.838;16.490;2022-12-29T08:16:51;8.32;;;4.50;;
55372;SDS011;41249;47.838;16.490;2022-12-29T08:19:18;10.35;;;7.30;;
55372;SDS011;41249;47.838;16.490;2022-12-29T08:21:44;9.32;;;4.50;;
55372;SDS011;41249;47.838;16.490;2022-12-29T08:24:11;8.63;;;4.82;;
55372;SDS011;41249;47.838;16.490;2022-12-29T08:26:38;17.63;;;9.25;;
55372;SDS011;41249;47.838;16.490;2022-12-29T08:29:04;14.70;;;7.63;;
55372;SDS011;41249;47.838;16.490;2022-12-29T08:31:31;14.85;;;8.45;;
55372;SDS011;41249;47.838;16.490;2022-12-29T08:33:57;16.75;;;7.88;;
55372;SDS011;41249;47.838;16.490;2022-12-29T08:36:26;10.60;;;5.30;;
55372;SDS011;41249;47.838;16.490;2022-12-29T08:38:52;14.48;;;7.60;;
55372;SDS011;41249;47.838;16.490;2022-12-29T08:41:19;14.35;;;6.78;;
55372;SDS011;41249;47.838;16.490;2022-12-29T08:43:46;11.70;;;7.45;;
55372;SDS011;41249;47.838;16.490;2022-12-29T08:46:13;12.10;;;6.53;;
55372;SDS011;41249;47.838;16.490;2022-12-29T08:48:41;14.45;;;7.80;;
55372;SDS011;41249;47.838;16.490;2022-12-29T08:51:08;12.80;;;7.57;;
55372;SDS011;41249;47.838;16.490;2022-12-29T08:53:35;9.70;;;5.75;;
55372;SDS011;41249;47.838;16.490;2022-12-29T08:56:01;13.27;;;7.93;;
55372;SDS011;41249;47.838;16.490;2022-12-29T08:58:31;13.70;;;8.15;;
55372;SDS011;41249;47.838;16.490;2022-12-29T09:00:58;20.92;;;10.07;;
55372;SDS011;41249;47.838;16.490;2022-12-29T09:03:25;15.85;;;8.98;;
55372;SDS011;41249;47.838;16.490;2022-12-29T09:06:13;15.88;;;8.75;;
55372;SDS011;41249;47.838;16.490;2022-12-29T09:08:42;14.05;;;7.40;;
55372;SDS011;41249;47.838;16.490;2022-12-29T09:11:10;14.57;;;7.32;;
55372;SDS011;41249;47.838;16.490;2022-12-29T09:13:38;14.48;;;8.13;;
55372;SDS011;41249;47.838;16.490;2022-12-29T09:16:05;12.18;;;6.90;;
55372;SDS011;41249;47.838;16.490;2022-12-29T09:18:32;11.82;;;6.88;;
55372;SDS011;41249;47.838;16.490;2022-12-29T09:20:59;17.08;;;7.85;;
55372;SDS011;41249;47.838;16.490;2022-12-29T09:23:29;20.30;;;9.68;;
55372;SDS011;41249;47.838;16.490;2022-12-29T09:25:57;15.02;;;7.35;;
55372;SDS011;41249;47.838;16.490;2022-12-29T09:28:24;14.15;;;7.55;;
55372;SDS011;41249;47.838;16.490;2022-12-29T09:30:51;11.77;;;7.03;;
55372;SDS011;41249;47.838;16.490;2022-12-29T09:33:18;23.67;;;10.00;;
55372;SDS011;41249;47.838;16.490;2022-12-29T09:35:49;21.77;;;9.90;;
55372;SDS011;41249;47.838;16.490;2022-12-29T09:38:17;8.02;;;4.85;;
55372;SDS011;41249;47.838;16.490;2022-12-29T09:40:45;13.45;;;6.97;;
55372;SDS011;41249;47.838;16.490;2022-12-29T09:45:47;14.82;;;5.63;;
55372;SDS011;41249;47.838;16.490;2022-12-29T09:48:18;18.40;;;8.98;;
55372;SDS011;41249;47.838;16.490;2022-12-29T09:50:53;15.73;;;7.60;;
55372;SDS011;41249;47.838;16.490;2022-12-29T09:56:00;14.10;;;7.03;;
55372;SDS011;41249;47.838;16.490;2022-12-29T10:02:11;14.40;;;7.30;;
55372;SDS011;41249;47.838;16.490;2022-12-29T10:04:25;10.88;;;6.13;;
55372;SDS011;41249;47.838;16.490;2022-12-29T10:06:57;19.50;;;7.22;;
55372;SDS011;41249;47.838;16.490;2022-12-29T10:20:56;9.20;;;5.55;;
55372;SDS011;41249;47.838;16.490;2022-12-29T10:26:02;14.48;;;6.30;;
55372;SDS011;41249;47.838;16.490;2022-12-29T10:28:33;11.75;;;7.80;;
55372;SDS011;41249;47.838;16.490;2022-12-29T10:31:36;17.13;;;8.70;;
55372;SDS011;41249;47.838;16.490;2022-12-29T10:34:07;12.15;;;6.80;;
55372;SDS011;41249;47.838;16.490;2022-12-29T10:39:24;12.27;;;6.28;;
55372;SDS011;41249;47.838;16.490;2022-12-29T10:44:24;14.23;;;8.38;;
55372;SDS011;41249;47.838;16.490;2022-12-29T10:47:02;9.13;;;4.88;;
55372;SDS011;41249;47.838;16.490;2022-12-29T10:49:32;13.02;;;6.90;;
55372;SDS011;41249;47.838;16.490;2022-12-29T10:52:05;12.27;;;6.18;;
55372;SDS011;41249;47.838;16.490;2022-12-29T10:54:36;16.75;;;7.40;;
55372;SDS011;41249;47.838;16.490;2022-12-29T11:00:36;20.50;;;6.88;;
55372;SDS011;41249;47.838;16.490;2022-12-29T11:08:46;16.20;;;7.60;;
55372;SDS011;41249;47.838;16.490;2022-12-29T11:11:33;18.73;;;8.40;;
55372;SDS011;41249;47.838;16.490;2022-12-29T11:14:14;14.57;;;6.85;;
55372;SDS011;41249;47.838;16.490;2022-12-29T11:16:48;10.98;;;5.80;;
55372;SDS011;41249;47.838;16.490;2022-12-29T11:19:25;18.27;;;8.93;;
55372;SDS011;41249;47.838;16.490;2022-12-29T11:21:53;15.68;;;9.20;;
55372;SDS011;41249;47.838;16.490;2022-12-29T11:24:22;15.48;;;6.03;;
55372;SDS011;41249;47.838;16.490;2022-12-29T11:26:54;24.92;;;10.68;;
55372;SDS011;41249;47.838;16.490;2022-12-29T11:29:38;26.17;;;13.65;;
55372;SDS011;41249;47.838;16.490;2022-12-29T11:32:12;37.65;;;13.55;;
55372;SDS011;41249;47.838;16.490;2022-12-29T11:34:39;23.83;;;9.65;;
55372;SDS011;41249;47.838;16.490;2022-12-29T11:37:06;30.30;;;12.85;;
55372;SDS011;41249;47.838;16.490;2022-12-29T11:42:35;32.17;;;12.18;;
55372;SDS011;41249;47.838;16.490;2022-12-29T11:45:14;25.85;;;12.75;;
55372;SDS011;41249;47.838;16.490;2022-12-29T11:47:53;22.67;;;9.70;;
55372;SDS011;41249;47.838;16.490;2022-12-29T11:50:25;19.95;;;7.20;;
55372;SDS011;41249;47.838;16.490;2022-12-29T11:55:31;29.90;;;11.07;;
55372;SDS011;41249;47.838;16.490;2022-12-29T11:57:59;16.35;;;6.35;;
55372;SDS011;41249;47.838;16.490;2022-12-29T12:00:29;15.27;;;8.32;;
55372;SDS011;41249;47.838;16.490;2022-12-29T12:03:21;18.83;;;8.82;;
55372;SDS011;41249;47.838;16.490;2022-12-29T12:05:50;34.13;;;11.00;;
55372;SDS011;41249;47.838;16.490;2022-12-29T12:10:57;33.47;;;10.43;;
55372;SDS011;41249;47.838;16.490;2022-12-29T12:13:34;34.00;;;10.30;;
55372;SDS011;41249;47.838;16.490;2022-12-29T12:16:22;18.65;;;8.20;;
55372;SDS011;41249;47.838;16.490;2022-12-29T12:18:58;12.85;;;6.32;;
55372;SDS011;41249;47.838;16.490;2022-12-29T12:21:49;28.60;;;8.40;;
55372;SDS011;41249;47.838;16.490;2022-12-29T12:26:56;23.38;;;9.85;;
55372;SDS011;41249;47.838;16.490;2022-12-29T12:29:42;31.80;;;8.52;;
55372;SDS011;41249;47.838;16.490;2022-12-29T12:52:16;16.17;;;8.00;;
55372;SDS011;41249;47.838;16.490;2022-12-29T12:55:06;14.52;;;8.02;;
55372;SDS011;41249;47.838;16.490;2022-12-29T12:57:57;27.08;;;11.15;;
55372;SDS011;41249;47.838;16.490;2022-12-29T13:00:27;23.83;;;10.60;;
55372;SDS011;41249;47.838;16.490;2022-12-29T13:11:41;19.13;;;9.55;;
55372;SDS011;41249;47.838;16.490;2022-12-29T13:14:51;16.08;;;7.78;;
55372;SDS011;41249;47.838;16.490;2022-12-29T13:20:20;10.65;;;5.38;;
55372;SDS011;41249;47.838;16.490;2022-12-29T13:23:09;15.32;;;8.80;;
55372;SDS011;41249;47.838;16.490;2022-12-29T13:26:14;18.92;;;10.48;;
55372;SDS011;41249;47.838;16.490;2022-12-29T13:37:14;20.48;;;8.90;;
55372;SDS011;41249;47.838;16.490;2022-12-29T13:40:03;17.13;;;9.38;;
55372;SDS011;41249;47.838;16.490;2022-12-29T13:42:42;15.63;;;7.10;;
55372;SDS011;41249;47.838;16.490;2022-12-29T13:45:19;19.40;;;8.98;;
55372;SDS011;41249;47.838;16.490;2022-12-29T13:47:51;17.35;;;8.57;;
55372;SDS011;41249;47.838;16.490;2022-12-29T13:50:25;23.20;;;11.57;;
55372;SDS011;41249;47.838;16.490;2022-12-29T13:53:10;13.73;;;7.82;;
55372;SDS011;41249;47.838;16.490;2022-12-29T13:55:55;25.23;;;12.80;;
55372;SDS011;41249;47.838;16.490;2022-12-29T14:01:29;14.80;;;8.23;;
55372;SDS011;41249;47.838;16.490;2022-12-29T14:04:02;16.83;;;9.38;;
55372;SDS011;41249;47.838;16.490;2022-12-29T14:06:35;13.70;;;6.63;;
55372;SDS011;41249;47.838;16.490;2022-12-29T14:09:27;14.25;;;6.95;;
55372;SDS011;41249;47.838;16.490;2022-12-29T14:17:35;16.25;;;9.02;;
55372;SDS011;41249;47.838;16.490;2022-12-29T14:20:03;25.10;;;12.00;;
55372;SDS011;41249;47.838;16.490;2022-12-29T14:28:29;15.50;;;7.90;;
55372;SDS011;41249;47.838;16.490;2022-12-29T14:30:58;15.77;;;8.55;;
55372;SDS011;41249;47.838;16.490;2022-12-29T14:33:27;14.77;;;8.38;;
55372;SDS011;41249;47.838;16.490;2022-12-29T14:35:56;34.45;;;15.85;;
55372;SDS011;41249;47.838;16.490;2022-12-29T14:38:46;33.70;;;14.55;;
55372;SDS011;41249;47.838;16.490;2022-12-29T14:41:32;33.05;;;15.75;;
55372;SDS011;41249;47.838;16.490;2022-12-29T14:46:47;16.75;;;8.32;;
55372;SDS011;41249;47.838;16.490;2022-12-29T14:49:22;9.30;;;6.15;;
55372;SDS011;41249;47.838;16.490;2022-12-29T14:51:52;17.30;;;8.95;;
55372;SDS011;41249;47.838;16.490;2022-12-29T14:57:03;21.92;;;11.15;;
55372;SDS011;41249;47.838;16.490;2022-12-29T14:59:32;22.83;;;10.23;;
55372;SDS011;41249;47.838;16.490;2022-12-29T15:02:04;12.55;;;7.45;;
55372;SDS011;41249;47.838;16.490;2022-12-29T15:04:41;20.13;;;9.90;;
55372;SDS011;41249;47.838;16.490;2022-12-29T15:07:10;23.52;;;12.13;;
55372;SDS011;41249;47.838;16.490;2022-12-29T15:09:44;18.23;;;10.07;;
55372;SDS011;41249;47.838;16.490;2022-12-29T15:14:52;38.65;;;10.30;;
55372;SDS011;41249;47.838;16.490;2022-12-29T15:17:28;41.58;;;10.55;;
55372;SDS011;41249;47.838;16.490;2022-12-29T15:19:57;21.75;;;10.90;;
55372;SDS011;41249;47.838;16.490;2022-12-29T15:22:26;18.17;;;8.48;;
55372;SDS011;41249;47.838;16.490;2022-12-29T15:24:54;23.00;;;9.85;;
55372;SDS011;41249;47.838;16.490;2022-12-29T15:27:23;14.23;;;7.97;;
55372;SDS011;41249;47.838;16.490;2022-12-29T15:29:58;9.38;;;6.07;;
55372;SDS011;41249;47.838;16.490;2022-12-29T15:32:28;12.38;;;6.80;;
55372;SDS011;41249;47.838;16.490;2022-12-29T15:35:27;16.88;;;10.20;;
55372;SDS011;41249;47.838;16.490;2022-12-29T15:38:00;24.60;;;10.95;;
55372;SDS011;41249;47.838;16.490;2022-12-29T15:40:40;18.10;;;11.07;;
55372;SDS011;41249;47.838;16.490;2022-12-29T15:43:16;17.08;;;9.88;;
55372;SDS011;41249;47.838;16.490;2022-12-29T15:45:48;18.27;;;10.68;;
55372;SDS011;41249;47.838;16.490;2022-12-29T15:48:17;14.23;;;7.85;;
55372;SDS011;41249;47.838;16.490;2022-12-29T15:50:46;13.13;;;8.60;;
55372;SDS011;41249;47.838;16.490;2022-12-29T15:53:20;18.45;;;8.75;;
55372;SDS011;41249;47.838;16.490;2022-12-29T15:56:01;12.52;;;7.47;;
55372;SDS011;41249;47.838;16.490;2022-12-29T15:58:42;14.75;;;9.25;;
55372;SDS011;41249;47.838;16.490;2022-12-29T16:03:53;29.85;;;8.48;;
55372;SDS011;41249;47.838;16.490;2022-12-29T16:08:58;9.95;;;5.22;;
55372;SDS011;41249;47.838;16.490;2022-12-29T16:11:27;19.20;;;7.18;;
55372;SDS011;41249;47.838;16.490;2022-12-29T16:13:59;48.00;;;7.13;;
55372;SDS011;41249;47.838;16.490;2022-12-29T16:16:35;118.25;;;10.13;;
55372;SDS011;41249;47.838;16.490;2022-12-29T16:19:08;76.00;;;10.25;;
55372;SDS011;41249;47.838;16.490;2022-12-29T16:21:40;50.83;;;8.65;;
55372;SDS011;41249;47.838;16.490;2022-12-29T16:24:17;21.17;;;7.63;;
55372;SDS011;41249;47.838;16.490;2022-12-29T16:26:47;31.85;;;7.75;;
55372;SDS011;41249;47.838;16.490;2022-12-29T16:29:16;18.40;;;5.72;;
55372;SDS011;41249;47.838;16.490;2022-12-29T16:34:24;15.35;;;6.72;;
55372;SDS011;41249;47.838;16.490;2022-12-29T16:36:53;12.82;;;6.60;;
55372;SDS011;41249;47.838;16.490;2022-12-29T16:39:28;90.35;;;12.50;;
55372;SDS011;41249;47.838;16.490;2022-12-29T16:41:57;29.02;;;7.97;;
55372;SDS011;41249;47.838;16.490;2022-12-29T16:44:28;11.77;;;5.82;;
55372;SDS011;41249;47.838;16.490;2022-12-29T16:49:29;33.13;;;8.20;;
55372;SDS011;41249;47.838;16.490;2022-12-29T16:51:57;25.98;;;9.10;;
55372;SDS011;41249;47.838;16.490;2022-12-29T16:54:28;17.20;;;9.60;;
55372;SDS011;41249;47.838;16.490;2022-12-29T16:56:59;59.00;;;11.40;;
55372;SDS011;41249;47.838;16.490;2022-12-29T17:02:08;25.75;;;10.90;;
55372;SDS011;41249;47.838;16.490;2022-12-29T17:04:40;16.00;;;9.70;;
55372;SDS011;41249;47.838;16.490;2022-12-29T17:07:17;14.15;;;8.70;;
55372;SDS011;41249;47.838;16.490;2022-12-29T17:09:45;14.93;;;8.73;;
55372;SDS011;41249;47.838;16.490;2022-12-29T17:12:17;10.90;;;6.45;;
55372;SDS011;41249;47.838;16.490;2022-12-29T17:14:47;10.07;;;5.88;;
55372;SDS011;41249;47.838;16.490;2022-12-29T17:20:24;12.98;;;6.00;;
55372;SDS011;41249;47.838;16.490;2022-12-29T17:22:55;15.35;;;7.85;;
55372;SDS011;41249;47.838;16.490;2022-12-29T17:25:26;9.27;;;5.32;;
55372;SDS011;41249;47.838;16.490;2022-12-29T17:28:04;10.30;;;5.50;;